Etusivu
METAR-TAF:

METAR-TAF

Lentoasemat :

Mitiga International Airport

Tripoli, Libya

Leveyspiiri: 32-54N, Pituuspiiri: 13-17E, korkeus merenpinnasta: 11 m

METAR: puuttuu

Aika: 16:26 (14:26 UTC)

Sääennuste

Tämä raportti tehtiin 3 tuntia ja 26 minuuttia sitten, kello 11.00 UTC
Ennuste voimassa 28. päivästä klo 12 UTC - 29. päivään klo 12 UTC
Tuuli 10 kn lounaasta
Näkyvyys: 8000 m
Muutamia pilviä 2500 ft:n korkeudessa
Hajanaisia pilviä 8000 ft:n korkeudessa
Tulossa
28. päivästä klo 21 UTC - 28. päivään klo 23 UTC
Tuuli 15 kn lännestä puuskistuen 25 kn:hen
Näkyvyys: 8000 m
Ajoittain
28. päivästä klo 21 UTC - 29. päivään klo 12 UTC
Näkyvyys: 3000 m
hiekkatuisku

TAF: HLLM 281100Z 2812/2912 22010KT 8000 FEW025 SCT080 BECMG 2821/2823 26015G25KT 8000 NSC TEMPO 2821/2912 3000 BLSA

Säähavainnot ja -ennusteet yli 4000 lentoasemalta (METAR- ja TAF-raportit).

Käytössä olevat sääasemat on merkitty karttaan keltaisilla ja punaisilla pisteillä.

Aseta hiiri pisteen päälle nähdäksesi sääaseman nimen.

Klikkaa sitten nähdäksesi säähavainnot ja -ennusteet.

Kartan vaihtaminen: klikkaa mustalla rastilla varustettuja vihreitä pisteitä, niin voit zoomata sisään; viivalla varustettua vihreää pistettä, niin voit zoomata ulos tai vihreitä nuolia, niin pääset viereisille kartoille.


METAR-TAF: